sensor_id;sensor_type;location;lat;lon;timestamp;pressure;altitude;pressure_sealevel;temperature;humidity
70015;BME280;57358;51.094;6.760;2023-05-09T00:00:48;101214.41;;;15.41;100.00
70015;BME280;57358;51.094;6.760;2023-05-09T00:03:14;101260.16;;;15.70;100.00
70015;BME280;57358;51.094;6.760;2023-05-09T00:05:41;101207.63;;;15.37;100.00
70015;BME280;57358;51.094;6.760;2023-05-09T00:08:07;101207.00;;;15.33;100.00
70015;BME280;57358;51.094;6.760;2023-05-09T00:10:34;101252.53;;;15.51;100.00
70015;BME280;57358;51.094;6.760;2023-05-09T00:13:01;101256.81;;;15.54;100.00
70015;BME280;57358;51.094;6.760;2023-05-09T00:15:27;101230.59;;;15.36;100.00
70015;BME280;57358;51.094;6.760;2023-05-09T00:17:54;101266.91;;;15.47;100.00
70015;BME280;57358;51.094;6.760;2023-05-09T00:20:20;101260.31;;;15.54;100.00
70015;BME280;57358;51.094;6.760;2023-05-09T00:22:47;101260.00;;;15.59;100.00
70015;BME280;57358;51.094;6.760;2023-05-09T00:25:13;101183.78;;;15.24;100.00
70015;BME280;57358;51.094;6.760;2023-05-09T00:27:40;101252.31;;;15.69;100.00
70015;BME280;57358;51.094;6.760;2023-05-09T00:30:10;101198.28;;;15.31;100.00
70015;BME280;57358;51.094;6.760;2023-05-09T00:32:37;101249.66;;;15.69;100.00
70015;BME280;57358;51.094;6.760;2023-05-09T00:35:06;101239.84;;;15.71;100.00
70015;BME280;57358;51.094;6.760;2023-05-09T00:37:33;101181.56;;;15.31;100.00
70015;BME280;57358;51.094;6.760;2023-05-09T00:39:59;101236.66;;;15.66;100.00
70015;BME280;57358;51.094;6.760;2023-05-09T00:42:25;101207.44;;;15.40;100.00
70015;BME280;57358;51.094;6.760;2023-05-09T00:44:52;101232.13;;;15.68;100.00
70015;BME280;57358;51.094;6.760;2023-05-09T00:47:21;101164.97;;;15.29;100.00
70015;BME280;57358;51.094;6.760;2023-05-09T00:49:48;101247.41;;;15.77;100.00
70015;BME280;57358;51.094;6.760;2023-05-09T00:52:15;101234.91;;;15.79;100.00
70015;BME280;57358;51.094;6.760;2023-05-09T00:54:42;101225.81;;;15.83;100.00
70015;BME280;57358;51.094;6.760;2023-05-09T00:57:09;101236.22;;;15.86;100.00
70015;BME280;57358;51.094;6.760;2023-05-09T00:59:35;101208.78;;;15.74;100.00
70015;BME280;57358;51.094;6.760;2023-05-09T01:02:02;101195.53;;;15.74;100.00
70015;BME280;57358;51.094;6.760;2023-05-09T01:04:29;101217.28;;;15.92;100.00
70015;BME280;57358;51.094;6.760;2023-05-09T01:07:03;101224.25;;;15.93;100.00
70015;BME280;57358;51.094;6.760;2023-05-09T01:09:34;101213.81;;;15.92;100.00
70015;BME280;57358;51.094;6.760;2023-05-09T01:12:17;101211.91;;;15.94;100.00
70015;BME280;57358;51.094;6.760;2023-05-09T01:22:45;101206.59;;;15.94;100.00
70015;BME280;57358;51.094;6.760;2023-05-09T01:31:04;101212.75;;;15.94;100.00
70015;BME280;57358;51.094;6.760;2023-05-09T01:33:32;101199.59;;;15.93;100.00
70015;BME280;57358;51.094;6.760;2023-05-09T01:36:04;101013.75;;;14.69;100.00
70015;BME280;57358;51.094;6.760;2023-05-09T01:38:34;101188.44;;;15.75;100.00
70015;BME280;57358;51.094;6.760;2023-05-09T01:41:05;101202.56;;;15.88;100.00
70015;BME280;57358;51.094;6.760;2023-05-09T01:43:34;101205.22;;;15.88;100.00
70015;BME280;57358;51.094;6.760;2023-05-09T01:46:04;101198.94;;;15.89;100.00
70015;BME280;57358;51.094;6.760;2023-05-09T01:48:41;101185.78;;;15.75;100.00
70015;BME280;57358;51.094;6.760;2023-05-09T01:51:09;101133.91;;;15.45;100.00
70015;BME280;57358;51.094;6.760;2023-05-09T01:53:36;101200.84;;;15.87;100.00
70015;BME280;57358;51.094;6.760;2023-05-09T01:56:04;101199.91;;;15.88;100.00
70015;BME280;57358;51.094;6.760;2023-05-09T01:58:32;101191.75;;;15.79;100.00
70015;BME280;57358;51.094;6.760;2023-05-09T02:01:02;101199.28;;;15.85;100.00
70015;BME280;57358;51.094;6.760;2023-05-09T02:03:29;101201.06;;;15.84;100.00
70015;BME280;57358;51.094;6.760;2023-05-09T02:05:57;101196.63;;;15.85;100.00
70015;BME280;57358;51.094;6.760;2023-05-09T02:08:25;101180.03;;;15.68;100.00
70015;BME280;57358;51.094;6.760;2023-05-09T02:10:51;101167.75;;;15.67;100.00
70015;BME280;57358;51.094;6.760;2023-05-09T02:13:18;101136.16;;;15.51;100.00
70015;BME280;57358;51.094;6.760;2023-05-09T02:15:45;101174.19;;;15.63;100.00
70015;BME280;57358;51.094;6.760;2023-05-09T02:18:12;101151.00;;;15.54;100.00
70015;BME280;57358;51.094;6.760;2023-05-09T02:20:39;101126.59;;;15.36;100.00
70015;BME280;57358;51.094;6.760;2023-05-09T02:23:05;101188.06;;;15.67;100.00
70015;BME280;57358;51.094;6.760;2023-05-09T02:25:32;101189.50;;;15.72;100.00
70015;BME280;57358;51.094;6.760;2023-05-09T02:28:00;101184.50;;;15.68;100.00
70015;BME280;57358;51.094;6.760;2023-05-09T02:30:34;101192.06;;;15.74;100.00
70015;BME280;57358;51.094;6.760;2023-05-09T02:33:05;101178.72;;;15.61;100.00
70015;BME280;57358;51.094;6.760;2023-05-09T02:35:34;101204.22;;;15.77;100.00
70015;BME280;57358;51.094;6.760;2023-05-09T02:38:01;101195.44;;;15.76;100.00
70015;BME280;57358;51.094;6.760;2023-05-09T02:40:31;101188.44;;;15.75;100.00
70015;BME280;57358;51.094;6.760;2023-05-09T02:42:59;101114.19;;;15.24;100.00
70015;BME280;57358;51.094;6.760;2023-05-09T02:45:25;101184.50;;;15.68;100.00
70015;BME280;57358;51.094;6.760;2023-05-09T02:47:52;101185.97;;;15.72;100.00
70015;BME280;57358;51.094;6.760;2023-05-09T02:50:18;101173.34;;;15.63;100.00
70015;BME280;57358;51.094;6.760;2023-05-09T02:52:45;101170.38;;;15.67;100.00
70015;BME280;57358;51.094;6.760;2023-05-09T02:55:12;101174.47;;;15.73;100.00
70015;BME280;57358;51.094;6.760;2023-05-09T02:57:38;101175.41;;;15.72;100.00
70015;BME280;57358;51.094;6.760;2023-05-09T03:00:06;101171.34;;;15.66;100.00
70015;BME280;57358;51.094;6.760;2023-05-09T03:02:36;101174.00;;;15.66;100.00
70015;BME280;57358;51.094;6.760;2023-05-09T03:05:02;101153.09;;;15.49;100.00
70015;BME280;57358;51.094;6.760;2023-05-09T03:07:29;101157.88;;;15.56;100.00
70015;BME280;57358;51.094;6.760;2023-05-09T03:09:56;101157.53;;;15.48;100.00
70015;BME280;57358;51.094;6.760;2023-05-09T03:12:22;101172.41;;;15.64;100.00
70015;BME280;57358;51.094;6.760;2023-05-09T03:14:49;101177.69;;;15.64;100.00
70015;BME280;57358;51.094;6.760;2023-05-09T03:17:15;101159.97;;;15.51;100.00
70015;BME280;57358;51.094;6.760;2023-05-09T03:19:47;101181.84;;;15.68;100.00
70015;BME280;57358;51.094;6.760;2023-05-09T03:22:14;101131.06;;;15.35;100.00
70015;BME280;57358;51.094;6.760;2023-05-09T03:24:40;101130.19;;;15.35;100.00
70015;BME280;57358;51.094;6.760;2023-05-09T03:27:07;101176.72;;;15.65;100.00
70015;BME280;57358;51.094;6.760;2023-05-09T03:29:33;101170.50;;;15.66;100.00
70015;BME280;57358;51.094;6.760;2023-05-09T03:32:00;101135.94;;;15.42;100.00
70015;BME280;57358;51.094;6.760;2023-05-09T03:34:26;101168.38;;;15.58;100.00
70015;BME280;57358;51.094;6.760;2023-05-09T03:36:53;101115.13;;;15.23;100.00
70015;BME280;57358;51.094;6.760;2023-05-09T03:39:19;101122.88;;;15.26;100.00
70015;BME280;57358;51.094;6.760;2023-05-09T03:41:45;101122.88;;;15.26;100.00
70015;BME280;57358;51.094;6.760;2023-05-09T03:44:12;101098.56;;;15.06;100.00
70015;BME280;57358;51.094;6.760;2023-05-09T03:46:39;101155.38;;;15.41;100.00
70015;BME280;57358;51.094;6.760;2023-05-09T03:49:05;101109.47;;;15.14;100.00
70015;BME280;57358;51.094;6.760;2023-05-09T03:51:32;101113.84;;;15.15;100.00
70015;BME280;57358;51.094;6.760;2023-05-09T03:53:58;101150.53;;;15.47;100.00
70015;BME280;57358;51.094;6.760;2023-05-09T03:56:25;101071.97;;;14.95;100.00
70015;BME280;57358;51.094;6.760;2023-05-09T03:58:51;101078.75;;;14.99;100.00
70015;BME280;57358;51.094;6.760;2023-05-09T04:01:18;101144.16;;;15.37;100.00
70015;BME280;57358;51.094;6.760;2023-05-09T04:03:44;100778.50;;;13.21;100.00
70015;BME280;57358;51.094;6.760;2023-05-09T04:06:11;101135.47;;;15.35;100.00
70015;BME280;57358;51.094;6.760;2023-05-09T04:08:38;101136.53;;;15.32;100.00
70015;BME280;57358;51.094;6.760;2023-05-09T04:11:04;101098.13;;;15.00;100.00
70015;BME280;57358;51.094;6.760;2023-05-09T04:13:32;101040.25;;;14.68;100.00
70015;BME280;57358;51.094;6.760;2023-05-09T04:15:59;101089.63;;;14.94;100.00
70015;BME280;57358;51.094;6.760;2023-05-09T04:18:25;101063.25;;;14.80;100.00
70015;BME280;57358;51.094;6.760;2023-05-09T04:20:51;101113.44;;;15.22;100.00
70015;BME280;57358;51.094;6.760;2023-05-09T04:23:18;100980.56;;;14.36;100.00
70015;BME280;57358;51.094;6.760;2023-05-09T04:25:45;101111.06;;;15.17;100.00
70015;BME280;57358;51.094;6.760;2023-05-09T04:28:11;101041.84;;;14.70;100.00
70015;BME280;57358;51.094;6.760;2023-05-09T04:30:38;101072.34;;;14.89;100.00
70015;BME280;57358;51.094;6.760;2023-05-09T04:33:04;101090.38;;;14.96;100.00
70015;BME280;57358;51.094;6.760;2023-05-09T04:35:30;100937.94;;;14.01;100.00
70015;BME280;57358;51.094;6.760;2023-05-09T04:37:57;101108.16;;;15.07;100.00
70015;BME280;57358;51.094;6.760;2023-05-09T04:40:23;101095.41;;;14.87;100.00
70015;BME280;57358;51.094;6.760;2023-05-09T04:42:52;101110.28;;;15.02;100.00
70015;BME280;57358;51.094;6.760;2023-05-09T04:45:18;101114.81;;;15.00;100.00
70015;BME280;57358;51.094;6.760;2023-05-09T04:47:45;101113.97;;;15.00;100.00
70015;BME280;57358;51.094;6.760;2023-05-09T04:50:11;101113.09;;;14.99;100.00
70015;BME280;57358;51.094;6.760;2023-05-09T04:52:38;101062.13;;;14.70;100.00
70015;BME280;57358;51.094;6.760;2023-05-09T04:55:05;101103.00;;;15.06;100.00
70015;BME280;57358;51.094;6.760;2023-05-09T04:57:32;101037.22;;;14.74;100.00
70015;BME280;57358;51.094;6.760;2023-05-09T04:59:58;101008.94;;;14.62;100.00
70015;BME280;57358;51.094;6.760;2023-05-09T05:02:24;101021.91;;;14.79;100.00
70015;BME280;57358;51.094;6.760;2023-05-09T05:04:51;101101.44;;;15.43;100.00
70015;BME280;57358;51.094;6.760;2023-05-09T05:07:25;101022.63;;;14.95;100.00
70015;BME280;57358;51.094;6.760;2023-05-09T05:09:51;101110.25;;;15.56;100.00
70015;BME280;57358;51.094;6.760;2023-05-09T05:12:18;101116.09;;;15.62;100.00
70015;BME280;57358;51.094;6.760;2023-05-09T05:14:44;101102.56;;;15.66;100.00
70015;BME280;57358;51.094;6.760;2023-05-09T05:17:11;101073.41;;;15.53;100.00
70015;BME280;57358;51.094;6.760;2023-05-09T05:19:37;101036.88;;;15.33;100.00
70015;BME280;57358;51.094;6.760;2023-05-09T05:22:03;101096.13;;;15.83;100.00
70015;BME280;57358;51.094;6.760;2023-05-09T05:24:30;101077.91;;;15.66;100.00
70015;BME280;57358;51.094;6.760;2023-05-09T05:26:56;101065.88;;;15.47;100.00
70015;BME280;57358;51.094;6.760;2023-05-09T05:29:25;101087.47;;;15.81;100.00
70015;BME280;57358;51.094;6.760;2023-05-09T05:31:51;101077.00;;;15.80;100.00
70015;BME280;57358;51.094;6.760;2023-05-09T05:34:18;101070.41;;;15.85;100.00
70015;BME280;57358;51.094;6.760;2023-05-09T05:36:44;101005.69;;;15.51;100.00
70015;BME280;57358;51.094;6.760;2023-05-09T05:39:10;101072.00;;;16.26;100.00
70015;BME280;57358;51.094;6.760;2023-05-09T05:41:37;101082.44;;;16.66;100.00
70015;BME280;57358;51.094;6.760;2023-05-09T05:44:04;101063.50;;;16.97;100.00
70015;BME280;57358;51.094;6.760;2023-05-09T05:46:30;101014.94;;;16.96;100.00
70015;BME280;57358;51.094;6.760;2023-05-09T05:48:56;100905.88;;;16.77;100.00
70015;BME280;57358;51.094;6.760;2023-05-09T05:51:23;101032.31;;;17.82;97.90
70015;BME280;57358;51.094;6.760;2023-05-09T05:53:49;101013.03;;;18.03;95.79
70015;BME280;57358;51.094;6.760;2023-05-09T05:56:16;100998.66;;;18.05;92.77
70015;BME280;57358;51.094;6.760;2023-05-09T05:58:42;100980.28;;;17.68;91.60
70015;BME280;57358;51.094;6.760;2023-05-09T06:01:08;100990.75;;;17.70;92.77
70015;BME280;57358;51.094;6.760;2023-05-09T06:03:35;100989.31;;;17.66;93.40
70015;BME280;57358;51.094;6.760;2023-05-09T06:06:01;100996.09;;;17.81;93.55
70015;BME280;57358;51.094;6.760;2023-05-09T06:08:28;100933.81;;;17.51;92.90
70015;BME280;57358;51.094;6.760;2023-05-09T06:10:54;100978.34;;;17.82;91.94
70015;BME280;57358;51.094;6.760;2023-05-09T06:13:21;100925.97;;;17.61;92.05
70015;BME280;57358;51.094;6.760;2023-05-09T06:15:47;100972.22;;;18.04;92.86
70015;BME280;57358;51.094;6.760;2023-05-09T06:18:14;100978.03;;;18.20;92.31
70015;BME280;57358;51.094;6.760;2023-05-09T06:20:40;100959.75;;;18.27;90.89
70015;BME280;57358;51.094;6.760;2023-05-09T06:23:07;100881.59;;;17.86;90.42
70015;BME280;57358;51.094;6.760;2023-05-09T06:25:33;100944.16;;;18.33;90.58
70015;BME280;57358;51.094;6.760;2023-05-09T06:27:59;100940.28;;;18.38;89.74
70015;BME280;57358;51.094;6.760;2023-05-09T06:30:26;100893.28;;;17.94;89.22
70015;BME280;57358;51.094;6.760;2023-05-09T06:32:53;100927.28;;;18.23;90.37
70015;BME280;57358;51.094;6.760;2023-05-09T06:35:20;100903.50;;;18.22;89.85
70015;BME280;57358;51.094;6.760;2023-05-09T06:37:47;100877.00;;;18.31;88.61
70015;BME280;57358;51.094;6.760;2023-05-09T06:40:15;100908.75;;;18.77;87.87
70015;BME280;57358;51.094;6.760;2023-05-09T06:42:41;100859.81;;;18.68;85.95
70015;BME280;57358;51.094;6.760;2023-05-09T06:45:08;100881.69;;;18.83;85.06
70015;BME280;57358;51.094;6.760;2023-05-09T06:47:35;100876.94;;;18.86;85.29
70015;BME280;57358;51.094;6.760;2023-05-09T06:50:01;100865.78;;;18.92;84.28
70015;BME280;57358;51.094;6.760;2023-05-09T06:52:28;100849.88;;;19.02;84.31
70015;BME280;57358;51.094;6.760;2023-05-09T06:54:54;100857.31;;;19.29;83.38
70015;BME280;57358;51.094;6.760;2023-05-09T06:57:20;100857.06;;;19.42;82.39
70015;BME280;57358;51.094;6.760;2023-05-09T06:59:47;100841.59;;;19.57;82.10
70015;BME280;57358;51.094;6.760;2023-05-09T07:02:14;100835.28;;;19.48;80.95
70015;BME280;57358;51.094;6.760;2023-05-09T07:04:41;100828.75;;;19.72;80.63
70015;BME280;57358;51.094;6.760;2023-05-09T07:07:07;100797.53;;;19.84;79.99
70015;BME280;57358;51.094;6.760;2023-05-09T07:09:34;100789.44;;;20.15;77.19
70015;BME280;57358;51.094;6.760;2023-05-09T07:12:00;100782.69;;;20.40;76.43
70015;BME280;57358;51.094;6.760;2023-05-09T07:14:27;100747.88;;;20.51;75.89
70015;BME280;57358;51.094;6.760;2023-05-09T07:16:53;100749.78;;;20.88;74.08
70015;BME280;57358;51.094;6.760;2023-05-09T07:19:35;100735.28;;;20.90;73.72
70015;BME280;57358;51.094;6.760;2023-05-09T07:22:01;100711.63;;;20.78;72.70
70015;BME280;57358;51.094;6.760;2023-05-09T07:24:28;100652.00;;;20.12;72.99
70015;BME280;57358;51.094;6.760;2023-05-09T07:26:54;100706.81;;;20.24;73.93
70015;BME280;57358;51.094;6.760;2023-05-09T07:29:21;100729.63;;;20.46;74.75
70015;BME280;57358;51.094;6.760;2023-05-09T07:31:47;100670.47;;;20.33;73.99
70015;BME280;57358;51.094;6.760;2023-05-09T07:34:18;100688.94;;;20.64;72.80
70015;BME280;57358;51.094;6.760;2023-05-09T07:36:45;100669.44;;;20.63;71.65
70015;BME280;57358;51.094;6.760;2023-05-09T07:39:11;100501.28;;;19.52;71.61
70015;BME280;57358;51.094;6.760;2023-05-09T07:41:37;100615.91;;;20.37;71.48
70015;BME280;57358;51.094;6.760;2023-05-09T07:44:04;100643.91;;;20.88;70.86
70015;BME280;57358;51.094;6.760;2023-05-09T07:46:30;100642.69;;;20.83;69.78
70015;BME280;57358;51.094;6.760;2023-05-09T07:48:57;100548.66;;;20.43;69.38
70015;BME280;57358;51.094;6.760;2023-05-09T07:51:23;100586.91;;;20.89;67.84
70015;BME280;57358;51.094;6.760;2023-05-09T07:53:50;100481.16;;;20.25;66.74
70015;BME280;57358;51.094;6.760;2023-05-09T07:56:16;100557.63;;;20.80;66.58
70015;BME280;57358;51.094;6.760;2023-05-09T07:58:42;100452.47;;;20.37;65.98
70015;BME280;57358;51.094;6.760;2023-05-09T08:01:09;100524.34;;;21.02;64.86
70015;BME280;57358;51.094;6.760;2023-05-09T08:03:35;100489.78;;;21.00;63.73
70015;BME280;57358;51.094;6.760;2023-05-09T08:06:02;100476.31;;;21.02;63.44
70015;BME280;57358;51.094;6.760;2023-05-09T08:08:29;100460.16;;;20.85;63.85
70015;BME280;57358;51.094;6.760;2023-05-09T08:10:55;100442.41;;;20.76;64.10
70015;BME280;57358;51.094;6.760;2023-05-09T08:13:22;100489.06;;;21.34;64.43
70015;BME280;57358;51.094;6.760;2023-05-09T08:15:48;100448.06;;;21.35;63.11
70015;BME280;57358;51.094;6.760;2023-05-09T08:18:16;100465.06;;;21.34;63.43
70015;BME280;57358;51.094;6.760;2023-05-09T08:20:42;100428.03;;;21.57;61.88
70015;BME280;57358;51.094;6.760;2023-05-09T08:23:08;100400.97;;;21.95;60.73
70015;BME280;57358;51.094;6.760;2023-05-09T08:25:36;100259.94;;;21.47;58.57
70015;BME280;57358;51.094;6.760;2023-05-09T08:28:02;100336.97;;;22.27;57.79
70015;BME280;57358;51.094;6.760;2023-05-09T08:30:29;100317.09;;;22.38;57.35
70015;BME280;57358;51.094;6.760;2023-05-09T08:32:55;100304.06;;;22.43;57.66
70015;BME280;57358;51.094;6.760;2023-05-09T08:35:22;100304.22;;;22.42;57.62
70015;BME280;57358;51.094;6.760;2023-05-09T08:37:48;100315.59;;;22.60;57.09
70015;BME280;57358;51.094;6.760;2023-05-09T08:40:16;100245.84;;;22.04;57.73
70015;BME280;57358;51.094;6.760;2023-05-09T08:42:43;100289.34;;;22.47;57.86
70015;BME280;57358;51.094;6.760;2023-05-09T08:45:12;100360.22;;;22.68;58.39
70015;BME280;57358;51.094;6.760;2023-05-09T08:47:41;100358.38;;;23.09;57.57
70015;BME280;57358;51.094;6.760;2023-05-09T08:50:08;100237.34;;;22.66;55.47
70015;BME280;57358;51.094;6.760;2023-05-09T08:52:37;100331.78;;;22.59;56.54
70015;BME280;57358;51.094;6.760;2023-05-09T08:55:06;100308.22;;;22.54;56.53
70015;BME280;57358;51.094;6.760;2023-05-09T08:57:33;100357.72;;;23.16;55.56
70015;BME280;57358;51.094;6.760;2023-05-09T09:00:06;100299.16;;;22.88;54.98
70015;BME280;57358;51.094;6.760;2023-05-09T09:02:39;100307.50;;;23.18;53.79
70015;BME280;57358;51.094;6.760;2023-05-09T09:05:06;100367.88;;;23.28;54.70
70015;BME280;57358;51.094;6.760;2023-05-09T09:07:35;100353.00;;;23.18;54.81
70015;BME280;57358;51.094;6.760;2023-05-09T09:10:02;100358.31;;;23.42;54.43
70015;BME280;57358;51.094;6.760;2023-05-09T09:12:30;100379.84;;;23.57;54.78
70015;BME280;57358;51.094;6.760;2023-05-09T09:14:59;100392.59;;;23.47;55.35
70015;BME280;57358;51.094;6.760;2023-05-09T09:17:29;100331.44;;;23.03;55.64
70015;BME280;57358;51.094;6.760;2023-05-09T09:19:58;100288.75;;;23.18;53.76
70015;BME280;57358;51.094;6.760;2023-05-09T09:22:31;100381.69;;;23.57;54.46
70015;BME280;57358;51.094;6.760;2023-05-09T09:24:59;100411.50;;;24.01;54.35
70015;BME280;57358;51.094;6.760;2023-05-09T09:27:27;100295.91;;;23.65;52.72
70015;BME280;57358;51.094;6.760;2023-05-09T09:29:54;100261.41;;;23.78;51.37
70015;BME280;57358;51.094;6.760;2023-05-09T09:32:31;100264.31;;;23.21;52.01
70015;BME280;57358;51.094;6.760;2023-05-09T09:35:09;100340.84;;;23.55;52.75
70015;BME280;57358;51.094;6.760;2023-05-09T09:37:38;100384.25;;;23.98;52.96
70015;BME280;57358;51.094;6.760;2023-05-09T09:40:10;100332.00;;;24.17;51.75
70015;BME280;57358;51.094;6.760;2023-05-09T09:42:45;100313.25;;;24.17;51.81
70015;BME280;57358;51.094;6.760;2023-05-09T09:45:14;100323.97;;;24.63;50.80
70015;BME280;57358;51.094;6.760;2023-05-09T09:47:42;100217.47;;;23.87;50.39
70015;BME280;57358;51.094;6.760;2023-05-09T09:50:11;100290.84;;;24.33;50.91
70015;BME280;57358;51.094;6.760;2023-05-09T09:52:52;100342.19;;;24.91;50.10
70015;BME280;57358;51.094;6.760;2023-05-09T09:55:20;100221.50;;;24.44;48.70
70015;BME280;57358;51.094;6.760;2023-05-09T09:57:47;100245.25;;;24.33;49.39
70015;BME280;57358;51.094;6.760;2023-05-09T10:00:16;100272.63;;;23.74;51.48
70015;BME280;57358;51.094;6.760;2023-05-09T10:02:51;100336.81;;;24.21;51.63
70015;BME280;57358;51.094;6.760;2023-05-09T10:07:59;100277.53;;;23.93;50.95
70015;BME280;57358;51.094;6.760;2023-05-09T10:10:28;100372.03;;;23.87;52.40
70015;BME280;57358;51.094;6.760;2023-05-09T10:13:01;100245.81;;;23.42;51.51
70015;BME280;57358;51.094;6.760;2023-05-09T10:15:29;100370.91;;;23.81;52.21
70015;BME280;57358;51.094;6.760;2023-05-09T10:18:16;100317.47;;;23.40;52.58
70015;BME280;57358;51.094;6.760;2023-05-09T10:20:45;100343.75;;;24.16;51.79
70015;BME280;57358;51.094;6.760;2023-05-09T10:23:13;100351.16;;;24.37;51.37
70015;BME280;57358;51.094;6.760;2023-05-09T10:25:46;100351.97;;;24.37;51.31
70015;BME280;57358;51.094;6.760;2023-05-09T10:28:17;100331.75;;;24.58;50.46
70015;BME280;57358;51.094;6.760;2023-05-09T10:33:45;100312.25;;;24.79;49.66
70015;BME280;57358;51.094;6.760;2023-05-09T10:36:14;100290.13;;;24.92;48.99
70015;BME280;57358;51.094;6.760;2023-05-09T10:38:42;100239.16;;;24.39;49.62
70015;BME280;57358;51.094;6.760;2023-05-09T10:41:09;100242.28;;;24.04;50.16
70015;BME280;57358;51.094;6.760;2023-05-09T10:43:36;100326.66;;;24.63;50.12
70015;BME280;57358;51.094;6.760;2023-05-09T10:46:03;100160.38;;;24.02;49.10
70015;BME280;57358;51.094;6.760;2023-05-09T10:48:31;100254.84;;;24.50;49.90
70015;BME280;57358;51.094;6.760;2023-05-09T10:50:59;100264.22;;;24.08;50.27
70015;BME280;57358;51.094;6.760;2023-05-09T10:53:40;100257.75;;;24.17;50.00
70015;BME280;57358;51.094;6.760;2023-05-09T10:56:07;100240.13;;;24.23;50.36
70015;BME280;57358;51.094;6.760;2023-05-09T10:58:34;100329.97;;;24.50;50.98
70015;BME280;57358;51.094;6.760;2023-05-09T11:01:06;100339.94;;;25.32;49.18
70015;BME280;57358;51.094;6.760;2023-05-09T11:09:36;100140.91;;;23.85;49.67
70015;BME280;57358;51.094;6.760;2023-05-09T11:14:37;100223.16;;;23.84;50.64
70015;BME280;57358;51.094;6.760;2023-05-09T11:17:08;100282.59;;;24.11;51.14
70015;BME280;57358;51.094;6.760;2023-05-09T11:19:37;100273.28;;;24.45;50.29
70015;BME280;57358;51.094;6.760;2023-05-09T11:24:37;100218.63;;;24.46;49.44
70015;BME280;57358;51.094;6.760;2023-05-09T11:29:44;100226.13;;;24.36;49.61
70015;BME280;57358;51.094;6.760;2023-05-09T11:32:12;100287.59;;;24.37;51.00
70015;BME280;57358;51.094;6.760;2023-05-09T11:34:42;100249.72;;;24.17;50.73
70015;BME280;57358;51.094;6.760;2023-05-09T11:37:15;100234.97;;;23.98;50.64
70015;BME280;57358;51.094;6.760;2023-05-09T11:40:01;100260.50;;;24.09;50.85
70015;BME280;57358;51.094;6.760;2023-05-09T11:42:30;100130.97;;;23.47;50.56
70015;BME280;57358;51.094;6.760;2023-05-09T11:44:57;100250.31;;;23.81;51.13
70015;BME280;57358;51.094;6.760;2023-05-09T11:47:25;100199.03;;;23.30;52.31
70015;BME280;57358;51.094;6.760;2023-05-09T11:49:51;100087.13;;;22.46;52.52
70015;BME280;57358;51.094;6.760;2023-05-09T11:52:18;100271.31;;;23.30;53.64
70015;BME280;57358;51.094;6.760;2023-05-09T11:54:44;100284.63;;;23.46;53.35
70015;BME280;57358;51.094;6.760;2023-05-09T11:57:12;100139.75;;;22.54;53.29
70015;BME280;57358;51.094;6.760;2023-05-09T11:59:43;100263.31;;;23.53;52.92
70015;BME280;57358;51.094;6.760;2023-05-09T12:02:10;100256.00;;;23.47;52.49
70015;BME280;57358;51.094;6.760;2023-05-09T12:04:37;100314.94;;;23.86;53.48
70015;BME280;57358;51.094;6.760;2023-05-09T12:07:05;100300.72;;;24.32;51.84
70015;BME280;57358;51.094;6.760;2023-05-09T12:09:32;100235.16;;;24.35;50.51
70015;BME280;57358;51.094;6.760;2023-05-09T12:12:00;100258.88;;;24.99;49.55
70015;BME280;57358;51.094;6.760;2023-05-09T12:14:31;100215.00;;;25.06;48.52
70015;BME280;57358;51.094;6.760;2023-05-09T12:16:58;100216.84;;;24.76;49.55
70015;BME280;57358;51.094;6.760;2023-05-09T12:19:26;100215.91;;;24.99;49.13
70015;BME280;57358;51.094;6.760;2023-05-09T12:21:59;100190.28;;;25.26;47.88
70015;BME280;57358;51.094;6.760;2023-05-09T12:24:27;100181.03;;;25.50;47.32
70015;BME280;57358;51.094;6.760;2023-05-09T12:26:55;100177.50;;;25.50;47.10
70015;BME280;57358;51.094;6.760;2023-05-09T12:29:23;100201.00;;;25.62;47.16
70015;BME280;57358;51.094;6.760;2023-05-09T12:31:52;100098.81;;;25.56;45.68
70015;BME280;57358;51.094;6.760;2023-05-09T12:34:21;100112.06;;;25.57;45.91
70015;BME280;57358;51.094;6.760;2023-05-09T12:36:48;100141.56;;;25.51;46.43
70015;BME280;57358;51.094;6.760;2023-05-09T12:39:17;100178.75;;;25.68;47.29
70015;BME280;57358;51.094;6.760;2023-05-09T12:41:44;100182.78;;;26.01;45.89
70015;BME280;57358;51.094;6.760;2023-05-09T12:44:26;100270.00;;;26.13;47.80
70015;BME280;57358;51.094;6.760;2023-05-09T12:47:00;100128.03;;;25.87;46.00
70015;BME280;57358;51.094;6.760;2023-05-09T12:49:27;100158.63;;;26.07;45.86
70015;BME280;57358;51.094;6.760;2023-05-09T12:51:56;100118.09;;;25.87;45.40
70015;BME280;57358;51.094;6.760;2023-05-09T12:54:27;100160.88;;;25.82;46.58
70015;BME280;57358;51.094;6.760;2023-05-09T12:56:56;100155.78;;;25.66;46.97
70015;BME280;57358;51.094;6.760;2023-05-09T12:59:25;100139.00;;;25.64;46.67
70015;BME280;57358;51.094;6.760;2023-05-09T13:01:54;100150.16;;;25.09;48.32
70015;BME280;57358;51.094;6.760;2023-05-09T13:04:23;100166.97;;;24.82;49.29
70015;BME280;57358;51.094;6.760;2023-05-09T13:06:56;100174.91;;;25.05;48.47
70015;BME280;57358;51.094;6.760;2023-05-09T13:09:24;100116.63;;;24.84;47.95
70015;BME280;57358;51.094;6.760;2023-05-09T13:11:51;100059.53;;;24.31;48.30
70015;BME280;57358;51.094;6.760;2023-05-09T13:14:19;100065.25;;;23.60;50.10
70015;BME280;57358;51.094;6.760;2023-05-09T13:16:46;100149.34;;;21.99;57.12
70015;BME280;57358;51.094;6.760;2023-05-09T13:19:13;100274.50;;;21.61;60.53
70015;BME280;57358;51.094;6.760;2023-05-09T13:21:42;100146.22;;;20.51;62.48